sensor_id;sensor_type;location;lat;lon;timestamp;pressure;altitude;pressure_sealevel;temperature;humidity
24825;BME280;12910;57.690;11.974;2023-04-04T00:01:11;102225.00;;;2.09;100.00
24825;BME280;12910;57.690;11.974;2023-04-04T00:03:37;102221.34;;;2.05;100.00
24825;BME280;12910;57.690;11.974;2023-04-04T00:06:03;102218.34;;;1.99;100.00
24825;BME280;12910;57.690;11.974;2023-04-04T00:08:28;102215.19;;;2.01;100.00
24825;BME280;12910;57.690;11.974;2023-04-04T00:11:00;102221.56;;;2.08;100.00
24825;BME280;12910;57.690;11.974;2023-04-04T00:13:26;102216.00;;;2.12;100.00
24825;BME280;12910;57.690;11.974;2023-04-04T00:15:52;102214.56;;;2.16;100.00
24825;BME280;12910;57.690;11.974;2023-04-04T00:18:18;102212.16;;;2.17;100.00
24825;BME280;12910;57.690;11.974;2023-04-04T00:20:43;102218.75;;;2.15;100.00
24825;BME280;12910;57.690;11.974;2023-04-04T00:23:09;102208.84;;;2.18;100.00
24825;BME280;12910;57.690;11.974;2023-04-04T00:25:37;102206.47;;;2.20;100.00
24825;BME280;12910;57.690;11.974;2023-04-04T00:28:03;102200.25;;;2.16;100.00
24825;BME280;12910;57.690;11.974;2023-04-04T00:30:29;102196.56;;;2.23;100.00
24825;BME280;12910;57.690;11.974;2023-04-04T00:32:55;102202.38;;;2.22;100.00
24825;BME280;12910;57.690;11.974;2023-04-04T00:35:21;102198.13;;;2.21;100.00
24825;BME280;12910;57.690;11.974;2023-04-04T00:37:46;102196.34;;;2.20;100.00
24825;BME280;12910;57.690;11.974;2023-04-04T00:40:12;102195.34;;;2.18;100.00
24825;BME280;12910;57.690;11.974;2023-04-04T00:42:37;102189.69;;;2.10;100.00
24825;BME280;12910;57.690;11.974;2023-04-04T00:45:06;102191.69;;;2.14;100.00
24825;BME280;12910;57.690;11.974;2023-04-04T00:47:32;102181.34;;;2.11;100.00
24825;BME280;12910;57.690;11.974;2023-04-04T00:49:57;102187.00;;;2.19;100.00
24825;BME280;12910;57.690;11.974;2023-04-04T00:52:23;102173.09;;;2.14;100.00
24825;BME280;12910;57.690;11.974;2023-04-04T00:54:48;102178.28;;;2.15;100.00
24825;BME280;12910;57.690;11.974;2023-04-04T00:57:14;102168.94;;;2.14;100.00
24825;BME280;12910;57.690;11.974;2023-04-04T00:59:41;102169.16;;;2.17;100.00
24825;BME280;12910;57.690;11.974;2023-04-04T01:02:07;102155.53;;;2.15;100.00
24825;BME280;12910;57.690;11.974;2023-04-04T01:04:33;102161.34;;;2.14;100.00
24825;BME280;12910;57.690;11.974;2023-04-04T01:06:59;102161.47;;;2.16;100.00
24825;BME280;12910;57.690;11.974;2023-04-04T01:09:25;102158.91;;;2.16;100.00
24825;BME280;12910;57.690;11.974;2023-04-04T01:11:51;102158.34;;;2.08;100.00
24825;BME280;12910;57.690;11.974;2023-04-04T01:14:17;102156.47;;;2.06;100.00
24825;BME280;12910;57.690;11.974;2023-04-04T01:16:43;102147.00;;;2.03;100.00
24825;BME280;12910;57.690;11.974;2023-04-04T01:19:16;102148.00;;;2.05;100.00
24825;BME280;12910;57.690;11.974;2023-04-04T01:21:44;102153.53;;;2.11;100.00
24825;BME280;12910;57.690;11.974;2023-04-04T01:24:11;102155.38;;;2.14;100.00
24825;BME280;12910;57.690;11.974;2023-04-04T01:26:40;102153.75;;;2.14;100.00
24825;BME280;12910;57.690;11.974;2023-04-04T01:29:06;102151.09;;;2.13;100.00
24825;BME280;12910;57.690;11.974;2023-04-04T01:31:38;102149.22;;;2.10;100.00
24825;BME280;12910;57.690;11.974;2023-04-04T01:34:22;102156.81;;;2.10;100.00
24825;BME280;12910;57.690;11.974;2023-04-04T01:39:35;102154.03;;;2.07;100.00
24825;BME280;12910;57.690;11.974;2023-04-04T01:42:04;102149.63;;;2.05;100.00
24825;BME280;12910;57.690;11.974;2023-04-04T01:44:30;102143.22;;;1.98;100.00
24825;BME280;12910;57.690;11.974;2023-04-04T01:46:56;102148.28;;;1.98;100.00
24825;BME280;12910;57.690;11.974;2023-04-04T01:49:22;102150.19;;;2.00;100.00
24825;BME280;12910;57.690;11.974;2023-04-04T01:51:49;102147.66;;;2.00;100.00
24825;BME280;12910;57.690;11.974;2023-04-04T01:54:14;102147.66;;;2.00;100.00
24825;BME280;12910;57.690;11.974;2023-04-04T01:56:41;102141.50;;;1.97;100.00
24825;BME280;12910;57.690;11.974;2023-04-04T01:59:06;102145.00;;;1.99;100.00
24825;BME280;12910;57.690;11.974;2023-04-04T02:01:31;102135.28;;;1.93;100.00
24825;BME280;12910;57.690;11.974;2023-04-04T02:03:57;102132.00;;;1.94;100.00
24825;BME280;12910;57.690;11.974;2023-04-04T02:06:23;102132.13;;;1.96;100.00
24825;BME280;12910;57.690;11.974;2023-04-04T02:08:48;102130.47;;;1.96;100.00
24825;BME280;12910;57.690;11.974;2023-04-04T02:11:13;102127.28;;;1.99;100.00
24825;BME280;12910;57.690;11.974;2023-04-04T02:13:39;102117.72;;;1.95;100.00
24825;BME280;12910;57.690;11.974;2023-04-04T02:16:08;102112.88;;;1.98;100.00
24825;BME280;12910;57.690;11.974;2023-04-04T02:18:33;102120.63;;;2.11;100.00
24825;BME280;12910;57.690;11.974;2023-04-04T02:21:00;102114.47;;;2.08;100.00
24825;BME280;12910;57.690;11.974;2023-04-04T02:23:25;102118.63;;;2.07;100.00
24825;BME280;12910;57.690;11.974;2023-04-04T02:25:51;102101.28;;;2.12;100.00
24825;BME280;12910;57.690;11.974;2023-04-04T02:28:17;102109.44;;;2.20;100.00
24825;BME280;12910;57.690;11.974;2023-04-04T02:30:42;102106.38;;;2.24;100.00
24825;BME280;12910;57.690;11.974;2023-04-04T02:33:08;102101.09;;;2.21;100.00
24825;BME280;12910;57.690;11.974;2023-04-04T02:35:33;102101.19;;;2.22;100.00
24825;BME280;12910;57.690;11.974;2023-04-04T02:37:58;102099.97;;;2.17;100.00
24825;BME280;12910;57.690;11.974;2023-04-04T02:40:24;102105.16;;;2.18;100.00
24825;BME280;12910;57.690;11.974;2023-04-04T02:42:49;102091.50;;;2.16;100.00
24825;BME280;12910;57.690;11.974;2023-04-04T02:45:15;102095.94;;;2.19;100.00
24825;BME280;12910;57.690;11.974;2023-04-04T02:47:41;102088.34;;;2.19;100.00
24825;BME280;12910;57.690;11.974;2023-04-04T02:50:08;102086.34;;;2.15;100.00
24825;BME280;12910;57.690;11.974;2023-04-04T02:52:34;102078.84;;;2.16;100.00
24825;BME280;12910;57.690;11.974;2023-04-04T02:55:00;102082.16;;;2.15;100.00
24825;BME280;12910;57.690;11.974;2023-04-04T02:57:26;102085.66;;;2.17;100.00
24825;BME280;12910;57.690;11.974;2023-04-04T02:59:52;102071.16;;;2.15;100.00
24825;BME280;12910;57.690;11.974;2023-04-04T03:02:17;102083.38;;;2.21;100.00
24825;BME280;12910;57.690;11.974;2023-04-04T03:04:43;102078.09;;;2.17;100.00
24825;BME280;12910;57.690;11.974;2023-04-04T03:07:08;102072.06;;;2.15;100.00
24825;BME280;12910;57.690;11.974;2023-04-04T03:09:33;102071.81;;;2.12;100.00
24825;BME280;12910;57.690;11.974;2023-04-04T03:11:59;102070.72;;;2.09;100.00
24825;BME280;12910;57.690;11.974;2023-04-04T03:14:25;102068.28;;;2.10;100.00
24825;BME280;12910;57.690;11.974;2023-04-04T03:16:51;102072.47;;;2.10;100.00
24825;BME280;12910;57.690;11.974;2023-04-04T03:19:17;102072.25;;;2.18;100.00
24825;BME280;12910;57.690;11.974;2023-04-04T03:21:42;102065.00;;;2.11;100.00
24825;BME280;12910;57.690;11.974;2023-04-04T03:24:08;102056.88;;;2.15;100.00
24825;BME280;12910;57.690;11.974;2023-04-04T03:26:33;102061.94;;;2.15;100.00
24825;BME280;12910;57.690;11.974;2023-04-04T03:28:58;102065.44;;;2.17;100.00
24825;BME280;12910;57.690;11.974;2023-04-04T03:31:24;102062.91;;;2.17;100.00
24825;BME280;12910;57.690;11.974;2023-04-04T03:33:49;102064.56;;;2.17;100.00
24825;BME280;12910;57.690;11.974;2023-04-04T03:36:15;102063.66;;;2.16;100.00
24825;BME280;12910;57.690;11.974;2023-04-04T03:38:41;102058.59;;;2.16;100.00
24825;BME280;12910;57.690;11.974;2023-04-04T03:41:07;102060.16;;;2.14;100.00
24825;BME280;12910;57.690;11.974;2023-04-04T03:43:32;102060.38;;;2.17;100.00
24825;BME280;12910;57.690;11.974;2023-04-04T03:46:04;102052.03;;;2.18;100.00
24825;BME280;12910;57.690;11.974;2023-04-04T03:48:31;102054.44;;;2.17;100.00
24825;BME280;12910;57.690;11.974;2023-04-04T03:50:58;102063.81;;;2.18;100.00
24825;BME280;12910;57.690;11.974;2023-04-04T03:53:24;102059.59;;;2.18;100.00
24825;BME280;12910;57.690;11.974;2023-04-04T03:55:50;102062.91;;;2.17;100.00
24825;BME280;12910;57.690;11.974;2023-04-04T03:58:16;102055.22;;;2.16;100.00
24825;BME280;12910;57.690;11.974;2023-04-04T04:00:41;102048.50;;;2.16;100.00
24825;BME280;12910;57.690;11.974;2023-04-04T04:03:06;102046.19;;;2.20;100.00
24825;BME280;12910;57.690;11.974;2023-04-04T04:05:32;102043.91;;;2.23;100.00
24825;BME280;12910;57.690;11.974;2023-04-04T04:07:58;102050.06;;;2.26;100.00
24825;BME280;12910;57.690;11.974;2023-04-04T04:10:24;102045.88;;;2.27;100.00
24825;BME280;12910;57.690;11.974;2023-04-04T04:12:49;102044.69;;;2.33;100.00
24825;BME280;12910;57.690;11.974;2023-04-04T04:15:14;102045.78;;;2.37;100.00
24825;BME280;12910;57.690;11.974;2023-04-04T04:17:40;102046.34;;;2.33;100.00
24825;BME280;12910;57.690;11.974;2023-04-04T04:20:07;102042.56;;;2.28;100.00
24825;BME280;12910;57.690;11.974;2023-04-04T04:22:33;102037.50;;;2.28;100.00
24825;BME280;12910;57.690;11.974;2023-04-04T04:24:59;102042.91;;;2.32;100.00
24825;BME280;12910;57.690;11.974;2023-04-04T04:27:25;102036.88;;;2.30;100.00
24825;BME280;12910;57.690;11.974;2023-04-04T04:29:50;102037.09;;;2.33;100.00
24825;BME280;12910;57.690;11.974;2023-04-04T04:32:16;102020.38;;;2.36;100.00
24825;BME280;12910;57.690;11.974;2023-04-04T04:34:42;102018.50;;;2.33;100.00
24825;BME280;12910;57.690;11.974;2023-04-04T04:37:07;102031.69;;;2.41;100.00
24825;BME280;12910;57.690;11.974;2023-04-04T04:39:33;102041.72;;;2.39;100.00
24825;BME280;12910;57.690;11.974;2023-04-04T04:41:59;102031.34;;;2.36;100.00
24825;BME280;12910;57.690;11.974;2023-04-04T04:44:24;102027.88;;;2.34;100.00
24825;BME280;12910;57.690;11.974;2023-04-04T04:46:50;102034.13;;;2.27;100.00
24825;BME280;12910;57.690;11.974;2023-04-04T04:49:15;102031.59;;;2.27;100.00
24825;BME280;12910;57.690;11.974;2023-04-04T04:51:41;102020.38;;;2.24;100.00
24825;BME280;12910;57.690;11.974;2023-04-04T04:54:07;102035.13;;;2.29;100.00
24825;BME280;12910;57.690;11.974;2023-04-04T04:56:32;102035.00;;;2.28;100.00
24825;BME280;12910;57.690;11.974;2023-04-04T04:58:58;102028.50;;;2.20;100.00
24825;BME280;12910;57.690;11.974;2023-04-04T05:01:23;102041.91;;;2.18;100.00
24825;BME280;12910;57.690;11.974;2023-04-04T05:03:49;102033.31;;;2.16;100.00
24825;BME280;12910;57.690;11.974;2023-04-04T05:06:14;102035.97;;;2.18;100.00
24825;BME280;12910;57.690;11.974;2023-04-04T05:08:40;102030.50;;;2.24;100.00
24825;BME280;12910;57.690;11.974;2023-04-04T05:11:05;102034.22;;;2.29;100.00
24825;BME280;12910;57.690;11.974;2023-04-04T05:13:31;102034.44;;;2.32;100.00
24825;BME280;12910;57.690;11.974;2023-04-04T05:15:56;102036.41;;;2.36;100.00
24825;BME280;12910;57.690;11.974;2023-04-04T05:18:22;102037.66;;;2.41;100.00
24825;BME280;12910;57.690;11.974;2023-04-04T05:20:54;102031.69;;;2.41;100.00
24825;BME280;12910;57.690;11.974;2023-04-04T05:23:19;102029.63;;;2.35;100.00
24825;BME280;12910;57.690;11.974;2023-04-04T05:25:48;102031.34;;;2.36;100.00
24825;BME280;12910;57.690;11.974;2023-04-04T05:28:14;102037.22;;;2.35;100.00
24825;BME280;12910;57.690;11.974;2023-04-04T05:30:40;102040.50;;;2.34;100.00
24825;BME280;12910;57.690;11.974;2023-04-04T05:33:05;102044.81;;;2.35;100.00
24825;BME280;12910;57.690;11.974;2023-04-04T05:35:31;102045.00;;;2.38;100.00
24825;BME280;12910;57.690;11.974;2023-04-04T05:37:56;102034.88;;;2.38;100.00
24825;BME280;12910;57.690;11.974;2023-04-04T05:40:22;102014.66;;;2.26;100.00
24825;BME280;12910;57.690;11.974;2023-04-04T05:42:57;102033.13;;;2.37;100.00
24825;BME280;12910;57.690;11.974;2023-04-04T05:45:24;102029.63;;;2.35;100.00
24825;BME280;12910;57.690;11.974;2023-04-04T05:47:50;102022.91;;;2.36;100.00
24825;BME280;12910;57.690;11.974;2023-04-04T05:50:15;102007.63;;;2.34;100.00
24825;BME280;12910;57.690;11.974;2023-04-04T05:52:41;102026.63;;;2.41;100.00
24825;BME280;12910;57.690;11.974;2023-04-04T05:55:07;102021.69;;;2.42;100.00
24825;BME280;12910;57.690;11.974;2023-04-04T05:57:32;102034.78;;;2.48;100.00
24825;BME280;12910;57.690;11.974;2023-04-04T05:59:58;102032.03;;;2.45;100.00
24825;BME280;12910;57.690;11.974;2023-04-04T06:02:23;102032.47;;;2.52;100.00
24825;BME280;12910;57.690;11.974;2023-04-04T06:04:49;102026.09;;;2.57;100.00
24825;BME280;12910;57.690;11.974;2023-04-04T06:07:14;102028.94;;;2.61;100.00
24825;BME280;12910;57.690;11.974;2023-04-04T06:09:40;102025.56;;;2.61;100.00
24825;BME280;12910;57.690;11.974;2023-04-04T06:12:06;102019.06;;;2.64;100.00
24825;BME280;12910;57.690;11.974;2023-04-04T06:14:35;102023.44;;;2.67;100.00
24825;BME280;12910;57.690;11.974;2023-04-04T06:17:02;102030.03;;;2.65;100.00
24825;BME280;12910;57.690;11.974;2023-04-04T06:19:27;102024.78;;;2.62;100.00
24825;BME280;12910;57.690;11.974;2023-04-04T06:21:52;102020.72;;;2.64;100.00
24825;BME280;12910;57.690;11.974;2023-04-04T06:24:18;102009.13;;;2.56;100.00
24825;BME280;12910;57.690;11.974;2023-04-04T06:26:43;102012.34;;;2.53;100.00
24825;BME280;12910;57.690;11.974;2023-04-04T06:29:09;102008.38;;;2.45;100.00
24825;BME280;12910;57.690;11.974;2023-04-04T06:31:38;102016.41;;;2.51;100.00
24825;BME280;12910;57.690;11.974;2023-04-04T06:34:03;102020.06;;;2.55;100.00
24825;BME280;12910;57.690;11.974;2023-04-04T06:36:29;102015.75;;;2.65;100.00
24825;BME280;12910;57.690;11.974;2023-04-04T06:38:54;102022.91;;;2.71;100.00
24825;BME280;12910;57.690;11.974;2023-04-04T06:41:20;102010.25;;;2.71;100.00
24825;BME280;12910;57.690;11.974;2023-04-04T06:43:46;102013.53;;;2.70;100.00
24825;BME280;12910;57.690;11.974;2023-04-04T06:46:12;102016.94;;;2.83;100.00
24825;BME280;12910;57.690;11.974;2023-04-04T06:48:38;102018.13;;;2.88;100.00
24825;BME280;12910;57.690;11.974;2023-04-04T06:51:07;102013.97;;;2.88;100.00
24825;BME280;12910;57.690;11.974;2023-04-04T06:53:33;102013.06;;;2.88;100.00
24825;BME280;12910;57.690;11.974;2023-04-04T06:55:59;102015.06;;;2.92;100.00
24825;BME280;12910;57.690;11.974;2023-04-04T06:58:24;102018.56;;;2.94;100.00
24825;BME280;12910;57.690;11.974;2023-04-04T07:00:50;102003.94;;;2.90;100.00
24825;BME280;12910;57.690;11.974;2023-04-04T07:03:15;102015.72;;;3.01;100.00
24825;BME280;12910;57.690;11.974;2023-04-04T07:05:41;102010.84;;;3.04;100.00
24825;BME280;12910;57.690;11.974;2023-04-04T07:08:07;102009.72;;;3.13;100.00
24825;BME280;12910;57.690;11.974;2023-04-04T07:10:33;102009.06;;;3.15;100.00
24825;BME280;12910;57.690;11.974;2023-04-04T07:12:58;101992.00;;;3.13;100.00
24825;BME280;12910;57.690;11.974;2023-04-04T07:15:24;101998.88;;;3.27;100.00
24825;BME280;12910;57.690;11.974;2023-04-04T07:17:49;101994.91;;;3.31;100.00
24825;BME280;12910;57.690;11.974;2023-04-04T07:20:15;101995.00;;;3.32;100.00
24825;BME280;12910;57.690;11.974;2023-04-04T07:22:40;101991.50;;;3.30;100.00
24825;BME280;12910;57.690;11.974;2023-04-04T07:25:09;101997.97;;;3.38;100.00
24825;BME280;12910;57.690;11.974;2023-04-04T07:27:36;101999.13;;;3.43;100.00
24825;BME280;12910;57.690;11.974;2023-04-04T07:30:03;101994.50;;;3.50;100.00
24825;BME280;12910;57.690;11.974;2023-04-04T07:32:29;101993.13;;;3.55;100.00
24825;BME280;12910;57.690;11.974;2023-04-04T07:34:54;102003.03;;;3.64;100.00
24825;BME280;12910;57.690;11.974;2023-04-04T07:37:20;101996.50;;;3.67;100.00
24825;BME280;12910;57.690;11.974;2023-04-04T07:39:46;101992.22;;;3.66;100.00
24825;BME280;12910;57.690;11.974;2023-04-04T07:42:14;101988.13;;;3.68;100.00
24825;BME280;12910;57.690;11.974;2023-04-04T07:44:40;101992.25;;;3.80;100.00
24825;BME280;12910;57.690;11.974;2023-04-04T07:47:05;101985.59;;;3.82;100.00
24825;BME280;12910;57.690;11.974;2023-04-04T07:49:31;101996.47;;;3.93;100.00
24825;BME280;12910;57.690;11.974;2023-04-04T07:51:57;101994.25;;;3.97;100.00
24825;BME280;12910;57.690;11.974;2023-04-04T07:54:22;101990.41;;;4.04;100.00
24825;BME280;12910;57.690;11.974;2023-04-04T07:56:49;101975.41;;;4.07;100.00
24825;BME280;12910;57.690;11.974;2023-04-04T07:59:15;101982.91;;;4.19;100.00
24825;BME280;12910;57.690;11.974;2023-04-04T08:01:40;101958.16;;;4.15;100.00
24825;BME280;12910;57.690;11.974;2023-04-04T08:04:05;101966.75;;;4.17;100.00
24825;BME280;12910;57.690;11.974;2023-04-04T08:06:31;101974.94;;;4.26;100.00
24825;BME280;12910;57.690;11.974;2023-04-04T08:08:58;101973.66;;;4.33;100.00
24825;BME280;12910;57.690;11.974;2023-04-04T08:11:24;101977.09;;;4.33;100.00
24825;BME280;12910;57.690;11.974;2023-04-04T08:13:49;101970.44;;;4.35;100.00
24825;BME280;12910;57.690;11.974;2023-04-04T08:16:15;101957.56;;;4.32;100.00
24825;BME280;12910;57.690;11.974;2023-04-04T08:18:41;101970.25;;;4.46;100.00
24825;BME280;12910;57.690;11.974;2023-04-04T08:21:07;101973.09;;;4.50;100.00
24825;BME280;12910;57.690;11.974;2023-04-04T08:23:32;101965.34;;;4.49;100.00
24825;BME280;12910;57.690;11.974;2023-04-04T08:25:58;101975.50;;;4.62;100.00
24825;BME280;12910;57.690;11.974;2023-04-04T08:28:25;101976.66;;;4.67;100.00
24825;BME280;12910;57.690;11.974;2023-04-04T08:30:52;101972.66;;;4.71;100.00
24825;BME280;12910;57.690;11.974;2023-04-04T08:33:18;101956.34;;;4.67;100.00
24825;BME280;12910;57.690;11.974;2023-04-04T08:35:44;101970.69;;;4.80;100.00
24825;BME280;12910;57.690;11.974;2023-04-04T08:38:09;101975.09;;;4.83;100.00
24825;BME280;12910;57.690;11.974;2023-04-04T08:40:35;101981.22;;;4.87;100.00
24825;BME280;12910;57.690;11.974;2023-04-04T08:43:03;101980.59;;;4.91;100.00
24825;BME280;12910;57.690;11.974;2023-04-04T08:45:31;101985.31;;;4.98;100.00
24825;BME280;12910;57.690;11.974;2023-04-04T08:47:57;101980.13;;;4.96;100.00
24825;BME280;12910;57.690;11.974;2023-04-04T08:50:26;101974.88;;;4.93;100.00
24825;BME280;12910;57.690;11.974;2023-04-04T08:52:54;101969.00;;;4.94;100.00
24825;BME280;12910;57.690;11.974;2023-04-04T08:55:20;101966.22;;;5.05;100.00
24825;BME280;12910;57.690;11.974;2023-04-04T08:57:45;101958.88;;;5.09;100.00
24825;BME280;12910;57.690;11.974;2023-04-04T09:00:12;101961.72;;;5.14;100.00
24825;BME280;12910;57.690;11.974;2023-04-04T09:03:01;101971.44;;;5.21;100.00
24825;BME280;12910;57.690;11.974;2023-04-04T09:05:29;101968.53;;;5.15;100.00
24825;BME280;12910;57.690;11.974;2023-04-04T09:07:55;101966.59;;;5.11;100.00
24825;BME280;12910;57.690;11.974;2023-04-04T09:10:21;101969.06;;;5.09;100.00
24825;BME280;12910;57.690;11.974;2023-04-04T09:12:47;101972.25;;;5.07;100.00
24825;BME280;12910;57.690;11.974;2023-04-04T09:15:15;101969.72;;;5.07;100.00
24825;BME280;12910;57.690;11.974;2023-04-04T09:17:40;101973.25;;;5.09;100.00
24825;BME280;12910;57.690;11.974;2023-04-04T09:23:07;101966.63;;;4.97;100.00
24825;BME280;12910;57.690;11.974;2023-04-04T09:25:34;101964.47;;;5.04;100.00
24825;BME280;12910;57.690;11.974;2023-04-04T09:28:03;101963.50;;;5.02;100.00
24825;BME280;12910;57.690;11.974;2023-04-04T09:30:33;101957.00;;;5.07;100.00
24825;BME280;12910;57.690;11.974;2023-04-04T09:33:08;101961.03;;;5.03;100.00
24825;BME280;12910;57.690;11.974;2023-04-04T09:35:36;101966.75;;;4.99;100.00
24825;BME280;12910;57.690;11.974;2023-04-04T09:38:02;101954.91;;;4.99;100.00
24825;BME280;12910;57.690;11.974;2023-04-04T09:40:28;101960.63;;;5.10;100.00
24825;BME280;12910;57.690;11.974;2023-04-04T09:42:54;101956.78;;;5.17;100.00
24825;BME280;12910;57.690;11.974;2023-04-04T09:45:23;101956.19;;;5.21;100.00
24825;BME280;12910;57.690;11.974;2023-04-04T09:47:50;101951.97;;;5.22;100.00
24825;BME280;12910;57.690;11.974;2023-04-04T09:50:25;101940.06;;;5.21;100.00
24825;BME280;12910;57.690;11.974;2023-04-04T09:52:55;101945.13;;;5.21;100.00
24825;BME280;12910;57.690;11.974;2023-04-04T09:55:30;101947.88;;;5.24;100.00
24825;BME280;12910;57.690;11.974;2023-04-04T09:57:56;101943.66;;;5.24;100.00
24825;BME280;12910;57.690;11.974;2023-04-04T10:00:21;101926.13;;;5.14;100.00
24825;BME280;12910;57.690;11.974;2023-04-04T10:02:48;101940.16;;;5.22;100.00
24825;BME280;12910;57.690;11.974;2023-04-04T10:05:15;101953.50;;;5.33;100.00
24825;BME280;12910;57.690;11.974;2023-04-04T10:07:41;101950.97;;;5.33;100.00
24825;BME280;12910;57.690;11.974;2023-04-04T10:10:12;101946.16;;;5.38;100.00
24825;BME280;12910;57.690;11.974;2023-04-04T10:12:38;101935.88;;;5.36;100.00
24825;BME280;12910;57.690;11.974;2023-04-04T10:15:03;101946.50;;;5.44;100.00
24825;BME280;12910;57.690;11.974;2023-04-04T10:17:30;101940.53;;;5.43;100.00
24825;BME280;12910;57.690;11.974;2023-04-04T10:20:02;101935.47;;;5.43;100.00
24825;BME280;12910;57.690;11.974;2023-04-04T10:22:30;101937.41;;;5.48;100.00
24825;BME280;12910;57.690;11.974;2023-04-04T10:24:56;101930.91;;;5.53;100.00
24825;BME280;12910;57.690;11.974;2023-04-04T10:27:23;101931.88;;;5.55;100.00
24825;BME280;12910;57.690;11.974;2023-04-04T10:29:50;101925.13;;;5.55;100.00
24825;BME280;12910;57.690;11.974;2023-04-04T10:35:13;101913.09;;;5.83;100.00
24825;BME280;12910;57.690;11.974;2023-04-04T10:37:53;101912.84;;;5.93;100.00
24825;BME280;12910;57.690;11.974;2023-04-04T10:40:24;101907.41;;;6.02;100.00
24825;BME280;12910;57.690;11.974;2023-04-04T10:42:52;101901.50;;;6.03;100.00
24825;BME280;12910;57.690;11.974;2023-04-04T10:45:17;101904.25;;;6.06;100.00
24825;BME280;12910;57.690;11.974;2023-04-04T10:47:43;101896.84;;;6.11;100.00
24825;BME280;12910;57.690;11.974;2023-04-04T10:50:09;101894.25;;;6.09;100.00
24825;BME280;12910;57.690;11.974;2023-04-04T10:52:37;101893.53;;;6.12;100.00
24825;BME280;12910;57.690;11.974;2023-04-04T10:55:09;101888.41;;;6.27;100.00
24825;BME280;12910;57.690;11.974;2023-04-04T10:57:40;101883.66;;;6.49;100.00
24825;BME280;12910;57.690;11.974;2023-04-04T11:00:14;101882.78;;;6.65;100.00
24825;BME280;12910;57.690;11.974;2023-04-04T11:05:19;101886.22;;;6.82;100.00
24825;BME280;12910;57.690;11.974;2023-04-04T11:07:53;101879.38;;;6.81;100.00
24825;BME280;12910;57.690;11.974;2023-04-04T11:10:31;101882.72;;;6.80;100.00
24825;BME280;12910;57.690;11.974;2023-04-04T11:13:00;101884.66;;;6.84;100.00
24825;BME280;12910;57.690;11.974;2023-04-04T11:18:20;101876.50;;;6.92;100.00
24825;BME280;12910;57.690;11.974;2023-04-04T11:20:46;101883.53;;;6.96;100.00
24825;BME280;12910;57.690;11.974;2023-04-04T11:23:20;101872.44;;;6.95;100.00
24825;BME280;12910;57.690;11.974;2023-04-04T11:28:42;101871.91;;;6.84;100.00
24825;BME280;12910;57.690;11.974;2023-04-04T11:34:04;101863.94;;;6.95;100.00
24825;BME280;12910;57.690;11.974;2023-04-04T11:39:07;101855.50;;;6.96;100.00
24825;BME280;12910;57.690;11.974;2023-04-04T11:41:48;101859.63;;;6.94;100.00
24825;BME280;12910;57.690;11.974;2023-04-04T11:44:17;101853.75;;;6.95;100.00
24825;BME280;12910;57.690;11.974;2023-04-04T11:46:44;101854.38;;;6.91;100.00
24825;BME280;12910;57.690;11.974;2023-04-04T11:49:14;101852.31;;;6.83;100.00
24825;BME280;12910;57.690;11.974;2023-04-04T11:51:40;101855.81;;;6.85;100.00
24825;BME280;12910;57.690;11.974;2023-04-04T11:54:16;101843.88;;;6.84;99.02
24825;BME280;12910;57.690;11.974;2023-04-04T11:56:42;101850.84;;;6.89;96.08
24825;BME280;12910;57.690;11.974;2023-04-04T11:59:18;101847.69;;;6.93;97.21
24825;BME280;12910;57.690;11.974;2023-04-04T12:01:44;101857.38;;;7.00;92.35
24825;BME280;12910;57.690;11.974;2023-04-04T12:04:10;101850.13;;;7.08;95.16
24825;BME280;12910;57.690;11.974;2023-04-04T12:06:37;101849.47;;;7.12;95.95
24825;BME280;12910;57.690;11.974;2023-04-04T12:09:04;101855.94;;;7.22;99.25
24825;BME280;12910;57.690;11.974;2023-04-04T12:11:32;101836.38;;;7.22;97.37
24825;BME280;12910;57.690;11.974;2023-04-04T12:13:59;101837.97;;;7.37;94.61
24825;BME280;12910;57.690;11.974;2023-04-04T12:16:26;101841.97;;;7.49;90.48
24825;BME280;12910;57.690;11.974;2023-04-04T12:18:51;101838.78;;;7.72;97.59
24825;BME280;12910;57.690;11.974;2023-04-04T12:21:17;101824.00;;;7.83;94.77
24825;BME280;12910;57.690;11.974;2023-04-04T12:23:43;101833.09;;;7.95;92.87
24825;BME280;12910;57.690;11.974;2023-04-04T12:26:09;101823.84;;;7.98;87.20
24825;BME280;12910;57.690;11.974;2023-04-04T12:28:35;101830.00;;;8.03;87.04
24825;BME280;12910;57.690;11.974;2023-04-04T12:31:04;101811.94;;;7.98;85.18
24825;BME280;12910;57.690;11.974;2023-04-04T12:33:31;101824.69;;;8.16;88.59
24825;BME280;12910;57.690;11.974;2023-04-04T12:36:04;101823.25;;;8.23;88.07
24825;BME280;12910;57.690;11.974;2023-04-04T12:38:30;101823.81;;;8.35;88.70
24825;BME280;12910;57.690;11.974;2023-04-04T12:40:56;101816.53;;;8.25;76.64
24825;BME280;12910;57.690;11.974;2023-04-04T12:43:25;101803.75;;;8.05;76.50
24825;BME280;12910;57.690;11.974;2023-04-04T12:45:53;101810.03;;;7.94;76.51
24825;BME280;12910;57.690;11.974;2023-04-04T12:48:27;101809.59;;;7.85;75.97
24825;BME280;12910;57.690;11.974;2023-04-04T12:50:56;101808.75;;;7.84;77.44
24825;BME280;12910;57.690;11.974;2023-04-04T12:53:26;101800.72;;;7.76;74.26
24825;BME280;12910;57.690;11.974;2023-04-04T12:55:59;101798.97;;;7.75;76.03
24825;BME280;12910;57.690;11.974;2023-04-04T12:58:26;101801.81;;;7.82;80.90
24825;BME280;12910;57.690;11.974;2023-04-04T13:00:53;101784.59;;;7.77;79.02